Time;durP1;ratioP1;P1;durP2;ratioP2;P2;SDS_P1;SDS_P2;PMS_P1;PMS_P2;Temp;Humidity;BMP_temperature;BMP_pressure;BME280_temperature;BME280_humidity;BME280_pressure;Samples;Min_cycle;Max_cycle;Signal;HPM_P1;HPM_P2
2022/08/23 00:01:15;;;;;;;9.65;4.75;;;20.20;74.30;;;;;;5026287;28;20071;-73
2022/08/23 00:03:42;;;;;;;11.20;5.10;;;20.20;74.50;;;;;;5011158;28;20057;-73
2022/08/23 00:06:09;;;;;;;10.05;4.63;;;20.10;74.70;;;;;;5014796;28;20037;-74
2022/08/23 00:08:35;;;;;;;9.13;4.43;;;20.10;74.80;;;;;;5013448;28;20030;-73
2022/08/23 00:11:01;;;;;;;9.45;4.85;;;20.10;74.90;;;;;;5015443;28;20045;-75
2022/08/23 00:13:27;;;;;;;12.57;5.10;;;20.10;75.00;;;;;;5013108;28;20038;-74
2022/08/23 00:15:53;;;;;;;13.13;5.38;;;20.00;74.90;;;;;;5015611;28;20034;-73
2022/08/23 00:18:19;;;;;;;12.45;5.65;;;20.00;75.00;;;;;;5022293;28;20457;-73
2022/08/23 00:20:46;;;;;;;10.48;6.00;;;20.00;75.20;;;;;;5006677;28;20050;-73
2022/08/23 00:23:11;;;;;;;10.07;5.05;;;19.90;75.50;;;;;;5017725;28;20453;-73
2022/08/23 00:25:37;;;;;;;10.48;5.95;;;19.80;75.60;;;;;;5007469;28;20026;-73
2022/08/23 00:28:03;;;;;;;10.95;6.00;;;19.80;75.70;;;;;;5008829;28;20041;-74
2022/08/23 00:30:29;;;;;;;11.85;5.55;;;19.80;75.60;;;;;;5018492;28;20076;-75
2022/08/23 00:32:55;;;;;;;10.95;6.10;;;19.70;75.70;;;;;;5006486;28;20034;-73
2022/08/23 00:35:20;;;;;;;11.15;5.93;;;19.70;75.70;;;;;;5019396;28;20413;-73
2022/08/23 00:37:46;;;;;;;10.85;5.40;;;19.60;75.80;;;;;;5013004;28;20033;-73
2022/08/23 00:40:15;;;;;;;13.32;6.18;;;19.60;75.70;;;;;;5011177;28;20071;-73
2022/08/23 00:48:57;;;;;;;9.98;5.78;;;19.50;75.90;;;;;;5005972;28;20071;-72
2022/08/23 00:51:34;;;;;;;10.35;5.55;;;19.50;76.20;;;;;;5018015;28;20468;-73
2022/08/23 00:54:00;;;;;;;11.65;5.75;;;19.50;76.30;;;;;;5006072;28;20033;-74
2022/08/23 00:56:30;;;;;;;10.88;5.22;;;19.40;76.40;;;;;;5018103;28;20030;-74
2022/08/23 00:58:56;;;;;;;11.68;6.38;;;19.40;76.40;;;;;;5010776;28;20081;-75
2022/08/23 01:01:23;;;;;;;10.13;5.68;;;19.30;76.60;;;;;;5013845;28;20046;-73
2022/08/23 01:03:53;;;;;;;13.10;6.20;;;19.20;76.70;;;;;;5016759;28;20026;-74
2022/08/23 01:06:31;;;;;;;11.52;6.13;;;19.30;76.90;;;;;;5010439;28;20141;-73
2022/08/23 01:09:03;;;;;;;10.07;5.70;;;19.20;77.00;;;;;;5008033;28;20533;-73
2022/08/23 01:11:39;;;;;;;11.15;6.07;;;19.20;77.00;;;;;;5010491;28;20065;-73
2022/08/23 01:14:12;;;;;;;10.13;6.40;;;19.20;77.00;;;;;;5022199;28;20049;-73
2022/08/23 01:16:52;;;;;;;11.93;5.72;;;19.10;77.00;;;;;;5009572;28;20030;-73
2022/08/23 01:19:36;;;;;;;13.68;6.20;;;19.10;77.30;;;;;;5013553;28;20062;-73
2022/08/23 01:22:16;;;;;;;12.85;5.72;;;19.10;77.50;;;;;;5011613;28;20057;-73
2022/08/23 01:24:43;;;;;;;10.45;5.70;;;19.10;77.60;;;;;;5005519;28;20038;-73
2022/08/23 01:27:11;;;;;;;9.68;5.95;;;19.00;77.70;;;;;;5012730;28;20064;-73
2022/08/23 01:29:37;;;;;;;11.98;6.15;;;19.00;77.50;;;;;;5013645;28;20374;-73
2022/08/23 01:32:03;;;;;;;10.18;5.93;;;19.00;77.50;;;;;;5018020;28;20602;-73
2022/08/23 01:34:30;;;;;;;10.20;5.82;;;18.90;77.70;;;;;;5012715;28;20465;-73
2022/08/23 01:36:57;;;;;;;11.73;6.25;;;18.90;77.90;;;;;;5019136;28;20038;-73
2022/08/23 01:39:22;;;;;;;10.55;5.80;;;18.80;78.00;;;;;;5008225;28;20037;-73
2022/08/23 01:41:50;;;;;;;11.48;6.47;;;18.80;78.10;;;;;;5016017;28;20029;-72
2022/08/23 01:44:16;;;;;;;12.43;6.22;;;18.80;78.10;;;;;;5017615;28;20249;-73
2022/08/23 01:46:45;;;;;;;15.23;6.68;;;18.70;78.30;;;;;;5012295;28;20046;-74
2022/08/23 01:49:11;;;;;;;13.52;7.03;;;18.70;78.50;;;;;;5021500;28;20053;-73
2022/08/23 01:51:37;;;;;;;10.93;5.70;;;18.60;78.70;;;;;;5012060;28;20045;-74
2022/08/23 01:54:03;;;;;;;10.93;5.75;;;18.60;78.80;;;;;;5015477;28;20507;-74
2022/08/23 01:56:30;;;;;;;10.80;6.13;;;18.60;78.90;;;;;;5009131;28;20299;-73
2022/08/23 01:58:56;;;;;;;10.23;6.30;;;18.60;78.80;;;;;;5018316;28;20030;-75
2022/08/23 02:01:22;;;;;;;11.38;6.63;;;18.60;78.70;;;;;;5012748;28;20046;-73
2022/08/23 02:03:47;;;;;;;11.80;6.90;;;18.60;78.80;;;;;;5016073;28;20072;-73
2022/08/23 02:06:13;;;;;;;10.00;6.35;;;18.50;78.90;;;;;;5013166;28;20160;-73
2022/08/23 02:11:24;;;;;;;13.35;6.55;;;18.50;79.30;;;;;;5011457;28;20103;-73
2022/08/23 02:13:53;;;;;;;13.15;6.65;;;18.40;79.40;;;;;;5021307;28;20522;-73
2022/08/23 02:16:46;;;;;;;9.95;5.78;;;18.50;79.50;;;;;;5010498;28;20120;-73
2022/08/23 02:19:13;;;;;;;14.38;6.72;;;18.40;79.40;;;;;;5001217;28;20105;-73
2022/08/23 02:21:41;;;;;;;9.45;6.45;;;18.50;79.20;;;;;;5012068;28;20034;-73
2022/08/23 02:24:15;;;;;;;11.23;6.20;;;18.40;79.20;;;;;;5014175;28;20036;-73
2022/08/23 02:26:45;;;;;;;12.77;6.85;;;18.40;79.30;;;;;;5019212;28;20132;-73
2022/08/23 02:29:11;;;;;;;11.95;6.53;;;18.40;79.40;;;;;;5011304;28;20345;-74
2022/08/23 02:31:38;;;;;;;13.10;6.72;;;18.30;79.60;;;;;;5009921;28;20034;-74
2022/08/23 02:34:04;;;;;;;12.88;6.97;;;18.20;79.80;;;;;;5007553;28;20061;-73
2022/08/23 02:36:31;;;;;;;11.45;6.18;;;18.30;80.00;;;;;;5016819;28;20477;-73
2022/08/23 02:38:57;;;;;;;11.52;6.22;;;18.20;80.10;;;;;;5008980;28;20476;-73
2022/08/23 02:41:23;;;;;;;12.50;7.18;;;18.20;80.20;;;;;;5014680;28;20030;-73
2022/08/23 02:43:52;;;;;;;11.77;7.18;;;18.20;80.20;;;;;;5010612;28;20095;-72
2022/08/23 02:46:20;;;;;;;13.45;7.32;;;18.20;80.20;;;;;;5007940;28;20038;-73
2022/08/23 02:48:45;;;;;;;14.50;6.97;;;18.20;80.20;;;;;;5011652;28;20029;-72
2022/08/23 02:51:11;;;;;;;12.98;7.03;;;18.20;80.30;;;;;;5015006;28;20091;-73
2022/08/23 02:53:37;;;;;;;14.35;7.93;;;18.20;80.50;;;;;;5007336;28;20059;-72
2022/08/23 02:56:03;;;;;;;13.88;8.00;;;18.20;80.60;;;;;;5015897;28;20063;-73
2022/08/23 02:58:29;;;;;;;13.55;7.90;;;18.20;80.60;;;;;;5014687;28;20025;-73
2022/08/23 03:00:54;;;;;;;12.40;7.32;;;18.30;80.70;;;;;;5007751;28;20045;-73
2022/08/23 03:03:20;;;;;;;14.25;7.78;;;18.30;80.80;;;;;;5005721;28;20578;-72
2022/08/23 03:05:47;;;;;;;11.88;7.90;;;18.40;80.70;;;;;;5007923;28;20045;-73
2022/08/23 03:08:12;;;;;;;16.20;8.30;;;18.40;80.60;;;;;;5010205;28;20415;-72
2022/08/23 03:10:43;;;;;;;12.48;8.20;;;18.50;80.50;;;;;;5014475;28;20501;-72
2022/08/23 03:13:09;;;;;;;14.07;8.07;;;18.50;80.40;;;;;;5019707;28;20137;-74
2022/08/23 03:15:34;;;;;;;11.65;7.57;;;18.60;80.30;;;;;;5016436;28;20112;-72
2022/08/23 03:18:00;;;;;;;17.20;7.63;;;18.60;80.20;;;;;;5010622;28;20029;-73
2022/08/23 03:20:26;;;;;;;14.40;7.38;;;18.60;80.10;;;;;;5005749;28;20237;-72
2022/08/23 03:22:51;;;;;;;11.93;7.97;;;18.70;79.80;;;;;;5017905;28;20061;-75
2022/08/23 03:25:17;;;;;;;11.70;7.20;;;18.60;79.90;;;;;;5005140;28;20076;-72
2022/08/23 03:27:43;;;;;;;15.25;8.82;;;18.70;79.80;;;;;;5007763;28;20064;-72
2022/08/23 03:30:09;;;;;;;17.67;9.02;;;18.80;79.70;;;;;;5016037;28;20033;-73
2022/08/23 03:32:35;;;;;;;14.73;9.80;;;18.80;79.30;;;;;;5015805;28;20021;-73
2022/08/23 03:35:00;;;;;;;15.13;9.18;;;18.80;79.00;;;;;;5012773;28;20040;-74
2022/08/23 03:37:26;;;;;;;14.40;8.32;;;18.80;78.90;;;;;;5019073;28;20056;-72
2022/08/23 03:39:52;;;;;;;14.35;9.05;;;18.80;78.90;;;;;;5010175;28;20026;-72
2022/08/23 03:42:18;;;;;;;12.48;8.63;;;18.80;78.90;;;;;;5016265;28;20053;-72
2022/08/23 03:44:44;;;;;;;15.68;10.02;;;18.80;78.80;;;;;;5017721;28;20385;-72
2022/08/23 03:47:10;;;;;;;12.63;8.98;;;18.70;78.80;;;;;;5017337;28;20041;-72
2022/08/23 03:49:36;;;;;;;15.63;10.32;;;18.80;78.80;;;;;;5015930;28;20424;-72
2022/08/23 03:52:03;;;;;;;13.15;8.93;;;18.80;78.70;;;;;;5012897;28;20094;-72
2022/08/23 03:54:29;;;;;;;14.00;9.20;;;18.80;78.70;;;;;;5017989;28;20030;-74
2022/08/23 03:56:59;;;;;;;14.80;9.85;;;18.80;78.80;;;;;;5017388;28;20500;-73
2022/08/23 03:59:26;;;;;;;16.10;10.32;;;18.70;78.70;;;;;;5012622;28;20045;-72
2022/08/23 04:01:52;;;;;;;18.23;9.82;;;18.70;78.70;;;;;;5017619;28;20034;-73
2022/08/23 04:04:17;;;;;;;13.35;10.02;;;18.70;78.60;;;;;;5016528;28;20079;-74
2022/08/23 04:06:46;;;;;;;13.65;9.23;;;18.70;78.70;;;;;;5021681;28;20041;-72
2022/08/23 04:09:14;;;;;;;14.15;8.60;;;18.60;78.90;;;;;;5015282;28;20026;-73
2022/08/23 04:11:41;;;;;;;13.40;9.07;;;18.60;79.10;;;;;;5015806;28;20458;-72
2022/08/23 04:14:07;;;;;;;15.43;10.13;;;18.60;79.20;;;;;;5023994;28;20026;-72
2022/08/23 04:16:37;;;;;;;15.50;9.90;;;18.50;79.50;;;;;;5020092;28;20037;-72
2022/08/23 04:19:05;;;;;;;17.55;10.45;;;18.40;79.60;;;;;;5012210;28;20026;-72
2022/08/23 04:21:31;;;;;;;15.70;10.05;;;18.40;79.70;;;;;;5016832;28;20330;-72
2022/08/23 04:23:57;;;;;;;15.90;10.88;;;18.30;79.80;;;;;;5012448;28;20381;-73
2022/08/23 04:26:23;;;;;;;19.63;11.20;;;18.30;80.00;;;;;;5008899;28;20034;-73
2022/08/23 04:28:48;;;;;;;16.73;10.18;;;18.30;80.20;;;;;;5019377;28;20033;-74
2022/08/23 04:31:16;;;;;;;14.88;9.75;;;18.30;80.20;;;;;;5010340;28;20030;-72
2022/08/23 04:33:42;;;;;;;17.35;11.23;;;18.30;80.30;;;;;;5012005;28;20073;-74
2022/08/23 04:36:07;;;;;;;17.60;10.38;;;18.20;80.40;;;;;;5016827;28;20073;-73
2022/08/23 04:38:33;;;;;;;15.27;9.98;;;18.20;80.50;;;;;;5020718;28;20068;-73
2022/08/23 04:43:44;;;;;;;13.88;9.48;;;18.20;80.40;;;;;;5012943;28;20500;-73
2022/08/23 04:46:13;;;;;;;14.32;10.35;;;18.20;80.40;;;;;;5010814;28;20030;-73
2022/08/23 04:48:39;;;;;;;15.63;10.05;;;18.20;80.50;;;;;;5016847;28;20145;-73
2022/08/23 04:51:05;;;;;;;17.02;10.90;;;18.10;80.70;;;;;;5013636;28;20784;-73
2022/08/23 04:53:34;;;;;;;16.98;10.25;;;18.10;80.80;;;;;;5019275;28;20564;-73
2022/08/23 04:56:01;;;;;;;18.58;10.45;;;18.10;80.80;;;;;;5009941;28;20064;-74
2022/08/23 04:58:28;;;;;;;14.70;10.52;;;18.10;80.80;;;;;;5010650;28;20480;-73
2022/08/23 05:00:54;;;;;;;14.45;10.10;;;18.10;80.90;;;;;;5008741;28;20088;-73
2022/08/23 05:03:20;;;;;;;15.57;10.07;;;18.10;80.90;;;;;;5013010;28;20457;-73
2022/08/23 05:05:46;;;;;;;14.57;9.77;;;18.10;80.90;;;;;;5009692;28;20026;-72
2022/08/23 05:08:11;;;;;;;19.45;11.27;;;18.20;81.00;;;;;;5011504;28;20046;-73
2022/08/23 05:10:37;;;;;;;16.35;10.73;;;18.20;80.90;;;;;;5016540;28;20041;-72
2022/08/23 05:13:03;;;;;;;17.60;10.60;;;18.20;80.90;;;;;;5016730;28;20123;-73
2022/08/23 05:15:28;;;;;;;17.02;10.70;;;18.20;80.70;;;;;;5012427;28;20037;-73
2022/08/23 05:17:54;;;;;;;17.35;10.55;;;18.20;80.70;;;;;;5009121;28;20038;-72
2022/08/23 05:20:20;;;;;;;16.17;9.40;;;18.30;80.70;;;;;;5016294;28;21791;-73
2022/08/23 05:22:46;;;;;;;16.27;10.63;;;18.30;80.70;;;;;;5023887;28;20045;-73
2022/08/23 05:25:11;;;;;;;15.85;10.52;;;18.40;80.60;;;;;;5023282;28;20037;-73
2022/08/23 05:27:37;;;;;;;20.05;11.23;;;18.40;80.40;;;;;;5008374;28;20125;-73
2022/08/23 05:30:05;;;;;;;15.10;9.85;;;18.50;80.50;;;;;;5011004;28;20109;-74
2022/08/23 05:32:31;;;;;;;17.13;11.30;;;18.50;80.50;;;;;;5013797;28;20034;-74
2022/08/23 05:34:56;;;;;;;15.10;10.15;;;18.60;80.20;;;;;;5013424;28;20419;-73
2022/08/23 05:37:22;;;;;;;17.67;10.95;;;18.80;79.90;;;;;;5016511;28;20033;-73
2022/08/23 05:39:48;;;;;;;15.95;10.55;;;18.90;79.60;;;;;;5014780;28;20042;-72
2022/08/23 05:42:15;;;;;;;16.77;10.88;;;19.00;79.20;;;;;;5018842;28;20057;-72
2022/08/23 05:44:41;;;;;;;14.50;10.15;;;19.10;78.90;;;;;;5006826;28;20029;-73
2022/08/23 05:47:09;;;;;;;17.45;10.85;;;19.20;79.10;;;;;;5012434;28;20148;-73
2022/08/23 05:49:36;;;;;;;15.48;10.73;;;19.30;78.80;;;;;;5020536;28;20029;-73
2022/08/23 05:52:04;;;;;;;15.75;11.60;;;19.50;78.60;;;;;;5022820;28;20120;-73
2022/08/23 05:54:29;;;;;;;14.00;10.38;;;19.60;78.40;;;;;;5017279;28;20033;-73
2022/08/23 05:56:55;;;;;;;16.25;11.95;;;19.70;78.10;;;;;;5013500;28;20034;-73
2022/08/23 05:59:21;;;;;;;20.33;11.93;;;19.80;77.00;;;;;;5017982;28;20548;-72
2022/08/23 06:01:47;;;;;;;17.65;10.80;;;19.80;77.00;;;;;;5005802;28;20033;-73
2022/08/23 06:04:13;;;;;;;19.15;12.20;;;20.00;76.80;;;;;;5011955;28;20034;-73
2022/08/23 06:06:41;;;;;;;20.17;11.43;;;20.00;76.30;;;;;;5016302;28;20045;-73
2022/08/23 06:09:09;;;;;;;25.65;12.38;;;20.00;76.30;;;;;;5009098;28;20029;-73
2022/08/23 06:11:36;;;;;;;21.80;11.85;;;20.00;76.10;;;;;;5008755;28;20477;-73
2022/08/23 06:14:04;;;;;;;20.02;11.57;;;20.00;75.80;;;;;;5010117;28;20064;-73
2022/08/23 06:16:36;;;;;;;18.88;11.27;;;20.00;75.70;;;;;;5021604;28;20083;-73
2022/08/23 06:19:03;;;;;;;18.40;11.25;;;20.00;75.80;;;;;;5005734;28;20420;-72
2022/08/23 06:21:29;;;;;;;18.33;11.10;;;20.00;75.70;;;;;;5021444;28;20041;-73
2022/08/23 06:23:55;;;;;;;16.52;10.32;;;20.10;75.80;;;;;;5016047;28;20022;-72
2022/08/23 06:26:30;;;;;;;18.23;11.23;;;20.00;76.00;;;;;;5045562;28;20073;-73
2022/08/23 06:28:58;;;;;;;23.25;12.30;;;20.10;75.70;;;;;;5007122;28;20056;-72
2022/08/23 06:31:44;;;;;;;21.27;11.10;;;20.00;75.20;;;;;;5008829;28;20354;-72
2022/08/23 06:34:21;;;;;;;21.08;11.82;;;20.20;75.30;;;;;;5011950;28;20064;-73
2022/08/23 06:36:56;;;;;;;21.30;11.68;;;20.20;75.20;;;;;;5017098;28;20044;-72
2022/08/23 06:39:25;;;;;;;22.63;11.55;;;20.20;75.40;;;;;;5006942;28;20021;-72
2022/08/23 06:41:51;;;;;;;15.77;10.80;;;20.30;75.20;;;;;;5017241;28;20041;-74
2022/08/23 06:44:18;;;;;;;28.38;13.80;;;20.40;74.80;;;;;;5013527;28;20164;-72
2022/08/23 06:46:45;;;;;;;23.85;13.15;;;20.50;74.30;;;;;;5015095;28;20045;-72
2022/08/23 06:49:11;;;;;;;18.52;12.13;;;20.50;74.50;;;;;;5015887;28;20060;-72
2022/08/23 06:51:43;;;;;;;18.98;11.57;;;20.60;73.90;;;;;;5008815;28;20057;-72
2022/08/23 06:54:12;;;;;;;17.73;11.18;;;20.80;73.60;;;;;;5019655;28;20025;-72
2022/08/23 06:56:39;;;;;;;18.60;12.43;;;21.00;73.20;;;;;;5011749;28;20483;-73
2022/08/23 06:59:06;;;;;;;19.42;12.32;;;21.10;73.10;;;;;;5021341;28;20036;-72
2022/08/23 07:02:02;;;;;;;23.70;13.63;;;21.20;72.20;;;;;;5017154;28;20458;-73
2022/08/23 07:04:36;;;;;;;21.30;12.20;;;21.30;72.10;;;;;;5003067;28;20041;-73
2022/08/23 07:07:03;;;;;;;;;;;21.50;71.60;;;;;;5012252;28;20041;-72
2022/08/23 07:09:30;;;;;;;19.30;11.25;;;21.60;71.40;;;;;;5013953;28;19999;-73
2022/08/23 07:11:57;;;;;;;24.60;13.88;;;21.70;71.10;;;;;;5010909;28;20038;-72
2022/08/23 07:14:24;;;;;;;22.10;13.18;;;21.90;70.20;;;;;;5011672;28;20040;-72
2022/08/23 07:16:52;;;;;;;20.48;13.23;;;22.10;69.80;;;;;;5017988;28;20036;-74
2022/08/23 07:19:30;;;;;;;22.52;12.85;;;22.20;69.10;;;;;;5012423;28;20121;-73
2022/08/23 07:21:57;;;;;;;21.20;11.85;;;22.40;68.90;;;;;;5022446;28;20041;-73
2022/08/23 07:24:22;;;;;;;18.33;12.68;;;22.60;67.60;;;;;;5023448;28;20024;-73
2022/08/23 07:26:50;;;;;;;20.55;12.65;;;22.60;67.40;;;;;;5013538;28;20042;-73
2022/08/23 07:29:18;;;;;;;23.83;12.15;;;22.80;67.20;;;;;;5010107;28;20017;-73
2022/08/23 07:31:53;;;;;;;26.45;12.57;;;23.00;66.30;;;;;;5013216;28;20046;-72
2022/08/23 07:34:19;;;;;;;16.33;10.52;;;23.00;66.20;;;;;;5005340;28;20548;-73
2022/08/23 07:36:46;;;;;;;21.35;11.45;;;23.10;67.00;;;;;;5013404;28;20042;-73
2022/08/23 07:39:13;;;;;;;18.02;10.85;;;23.30;66.40;;;;;;5011169;28;20038;-73
2022/08/23 07:41:40;;;;;;;18.35;11.05;;;23.50;66.30;;;;;;5015027;28;20021;-73
2022/08/23 07:44:08;;;;;;;16.85;9.93;;;23.70;66.10;;;;;;5019668;28;20041;-73
2022/08/23 07:46:34;;;;;;;18.30;10.43;;;23.80;65.90;;;;;;5016140;28;20034;-73
2022/08/23 07:49:02;;;;;;;15.55;9.82;;;24.00;66.30;;;;;;5010200;28;20061;-73
2022/08/23 07:51:30;;;;;;;18.55;10.25;;;24.10;65.40;;;;;;5042550;28;20034;-73
2022/08/23 07:53:56;;;;;;;19.38;10.65;;;24.20;64.80;;;;;;5011386;28;20461;-72
2022/08/23 07:56:22;;;;;;;17.05;9.60;;;24.10;65.60;;;;;;5013975;28;20050;-72
2022/08/23 07:58:49;;;;;;;15.38;9.23;;;24.40;65.40;;;;;;5011256;28;20030;-72
2022/08/23 08:01:23;;;;;;;16.13;9.48;;;24.50;65.20;;;;;;5016276;28;20108;-72
2022/08/23 08:03:53;;;;;;;16.30;9.35;;;24.60;64.40;;;;;;5047227;28;20056;-73
2022/08/23 08:06:23;;;;;;;18.77;8.57;;;24.40;65.20;;;;;;5011128;28;20038;-72
2022/08/23 08:08:50;;;;;;;12.80;8.30;;;24.50;65.00;;;;;;5011714;28;20037;-73
2022/08/23 08:11:19;;;;;;;18.25;8.18;;;24.70;64.50;;;;;;5015032;28;20076;-72
2022/08/23 08:13:46;;;;;;;13.77;7.47;;;24.80;64.20;;;;;;5017077;28;20088;-73
2022/08/23 08:16:25;;;;;;;12.60;7.07;;;25.00;64.00;;;;;;5007433;28;20056;-73
2022/08/23 08:18:52;;;;;;;13.77;6.35;;;25.30;63.10;;;;;;5021925;28;20104;-73
2022/08/23 08:21:18;;;;;;;14.10;6.25;;;25.60;62.00;;;;;;5010698;28;20037;-73
2022/08/23 08:23:44;;;;;;;12.27;6.30;;;25.60;62.80;;;;;;5024089;28;20043;-74
2022/08/23 08:26:10;;;;;;;12.20;5.38;;;25.80;62.00;;;;;;5005052;28;20146;-73
2022/08/23 08:28:36;;;;;;;13.10;5.40;;;26.10;61.60;;;;;;5019585;28;20108;-73
2022/08/23 08:31:03;;;;;;;9.52;4.45;;;26.10;62.20;;;;;;5013954;28;20053;-73
2022/08/23 08:33:29;;;;;;;10.75;3.83;;;26.10;61.60;;;;;;5012649;28;20037;-73
2022/08/23 08:35:56;;;;;;;8.25;3.72;;;26.00;62.90;;;;;;5007963;28;20164;-73
2022/08/23 08:38:22;;;;;;;8.45;3.80;;;26.10;63.20;;;;;;5016596;28;20029;-73
2022/08/23 08:41:00;;;;;;;8.23;3.78;;;26.30;62.20;;;;;;5025683;28;20084;-73
2022/08/23 08:43:39;;;;;;;9.73;3.20;;;26.40;62.40;;;;;;5047889;28;20055;-73
2022/08/23 08:46:26;;;;;;;7.43;3.47;;;26.20;63.00;;;;;;5014588;28;20048;-74
2022/08/23 08:48:56;;;;;;;8.00;3.70;;;26.00;63.50;;;;;;5023019;28;20096;-73
2022/08/23 08:51:36;;;;;;;6.63;3.38;;;25.80;64.40;;;;;;5026845;28;20037;-73
2022/08/23 08:54:07;;;;;;;6.18;2.22;;;26.10;62.80;;;;;;5023020;28;20492;-73
2022/08/23 08:56:35;;;;;;;6.47;1.90;;;26.20;61.50;;;;;;5013325;28;20068;-73
2022/08/23 08:59:08;;;;;;;6.10;1.80;;;26.40;61.00;;;;;;5017877;28;20550;-73
2022/08/23 09:01:36;;;;;;;5.07;1.65;;;26.60;61.20;;;;;;5019803;28;20053;-72
2022/08/23 09:04:03;;;;;;;3.70;1.38;;;26.40;61.10;;;;;;5023685;28;20076;-75
2022/08/23 09:06:54;;;;;;;4.53;1.40;;;26.60;61.80;;;;;;5010526;28;20544;-73
2022/08/23 09:09:39;;;;;;;1.35;0.90;;;27.00;60.30;;;;;;5009466;28;20470;-72
2022/08/23 09:12:48;;;;;;;4.38;1.20;;;27.00;59.80;;;;;;5011685;28;20126;-73
2022/08/23 09:15:19;;;;;;;2.85;1.17;;;26.90;60.30;;;;;;5008053;28;20034;-73
2022/08/23 09:17:53;;;;;;;4.10;1.55;;;26.90;60.80;;;;;;5010015;28;20163;-71
2022/08/23 09:20:21;;;;;;;4.55;1.63;;;27.10;60.80;;;;;;5012999;28;20092;-73
2022/08/23 09:22:50;;;;;;;3.25;1.20;;;27.30;59.50;;;;;;5020722;28;20353;-74
2022/08/23 09:25:17;;;;;;;5.35;1.92;;;27.60;58.80;;;;;;5020744;28;20036;-73
2022/08/23 09:27:44;;;;;;;3.75;1.55;;;28.20;58.40;;;;;;5014157;28;20049;-72
2022/08/23 09:30:15;;;;;;;2.75;1.45;;;28.40;55.70;;;;;;5019415;28;20026;-73
2022/08/23 09:32:43;;;;;;;3.42;1.30;;;28.10;56.70;;;;;;5008299;28;20025;-73
2022/08/23 09:35:25;;;;;;;5.15;1.83;;;28.40;56.30;;;;;;5023246;28;20412;-74
2022/08/23 09:38:01;;;;;;;4.90;1.80;;;28.90;55.70;;;;;;5007947;28;20029;-73
2022/08/23 09:40:49;;;;;;;6.30;2.20;;;29.20;55.70;;;;;;5020665;28;20041;-73
2022/08/23 09:43:22;;;;;;;4.45;2.47;;;28.70;55.90;;;;;;4998834;28;20022;-72
2022/08/23 09:45:48;;;;;;;6.90;3.03;;;27.70;58.40;;;;;;4991678;28;20042;-73
2022/08/23 09:48:31;;;;;;;5.22;2.60;;;26.90;60.40;;;;;;4985893;28;20310;-74
2022/08/23 09:51:10;;;;;;;5.90;2.70;;;26.80;60.90;;;;;;4996295;28;20039;-73
2022/08/23 09:53:36;;;;;;;6.10;2.58;;;26.60;62.00;;;;;;5019898;28;20547;-73
2022/08/23 09:56:18;;;;;;;5.05;2.05;;;27.10;60.20;;;;;;5018789;28;20120;-75
2022/08/23 09:58:46;;;;;;;4.85;2.40;;;27.40;60.20;;;;;;5016494;28;20021;-73
2022/08/23 10:01:26;;;;;;;5.18;1.95;;;27.40;60.20;;;;;;5016279;28;20022;-73
2022/08/23 10:04:15;;;;;;;3.10;1.90;;;27.80;59.20;;;;;;5000585;28;20381;-73
2022/08/23 10:06:45;;;;;;;6.47;2.28;;;27.90;58.70;;;;;;5015374;28;20477;-73
2022/08/23 10:09:21;;;;;;;3.53;1.75;;;28.00;58.00;;;;;;5007421;28;20042;-72
2022/08/23 10:11:47;;;;;;;3.72;1.80;;;28.50;56.80;;;;;;5015451;28;20047;-72
2022/08/23 10:14:16;;;;;;;5.47;2.00;;;28.20;56.90;;;;;;5016332;28;20025;-73
2022/08/23 10:16:54;;;;;;;3.20;1.80;;;27.80;57.20;;;;;;5015021;28;20072;-73
2022/08/23 10:19:44;;;;;;;4.00;2.10;;;27.40;58.70;;;;;;5011490;28;20045;-73
2022/08/23 10:22:25;;;;;;;3.53;1.98;;;27.30;59.10;;;;;;5014582;28;20029;-73
2022/08/23 10:25:12;;;;;;;3.30;1.88;;;27.20;59.00;;;;;;5017491;28;20112;-73
2022/08/23 10:31:04;;;;;;;4.30;2.00;;;27.60;58.90;;;;;;5014530;28;20508;-74
2022/08/23 10:34:12;;;;;;;4.35;2.03;;;28.00;57.20;;;;;;5004994;28;20042;-73
2022/08/23 10:37:17;;;;;;;4.82;1.83;;;28.30;55.70;;;;;;5004877;28;20029;-73
2022/08/23 10:39:52;;;;;;;3.45;1.75;;;28.30;55.60;;;;;;5012254;28;20042;-74
2022/08/23 10:42:30;;;;;;;3.55;1.77;;;28.30;55.80;;;;;;5014918;28;20026;-73
2022/08/23 10:45:29;;;;;;;3.10;1.70;;;28.50;55.40;;;;;;5020720;28;20037;-73
2022/08/23 10:48:15;;;;;;;5.32;2.30;;;29.00;55.30;;;;;;5015370;28;20123;-73
2022/08/23 10:50:51;;;;;;;6.75;2.50;;;29.10;54.70;;;;;;5010255;28;20034;-73
2022/08/23 10:53:19;;;;;;;5.18;2.30;;;28.80;55.30;;;;;;5019238;28;20076;-73
2022/08/23 10:56:02;;;;;;;4.55;2.00;;;29.10;55.20;;;;;;5007541;28;20117;-74
2022/08/23 10:58:37;;;;;;;5.38;1.88;;;29.10;54.90;;;;;;5013957;28;20679;-73
2022/08/23 11:01:05;;;;;;;3.58;2.10;;;29.30;53.80;;;;;;5000429;28;20034;-75
2022/08/23 11:03:58;;;;;;;4.35;2.10;;;29.30;54.60;;;;;;5015989;28;20100;-73
2022/08/23 11:06:36;;;;;;;4.55;1.75;;;29.70;53.00;;;;;;5012872;28;20068;-74
2022/08/23 11:09:07;;;;;;;3.50;2.17;;;29.80;53.30;;;;;;5011981;28;20516;-75
2022/08/23 11:11:48;;;;;;;3.58;1.70;;;29.60;52.80;;;;;;5016029;28;20033;-75
2022/08/23 11:14:44;;;;;;;4.45;1.98;;;29.80;53.20;;;;;;5013229;28;20026;-73
2022/08/23 11:17:33;;;;;;;4.22;1.95;;;29.40;52.30;;;;;;5007825;28;20109;-73
2022/08/23 11:20:03;;;;;;;5.78;1.98;;;29.30;52.80;;;;;;5000656;28;20049;-74
2022/08/23 11:22:33;;;;;;;3.50;2.08;;;29.00;53.40;;;;;;5007921;28;20478;-73
2022/08/23 11:25:05;;;;;;;5.18;2.10;;;28.60;53.60;;;;;;5011211;28;20037;-74
2022/08/23 11:27:35;;;;;;;6.07;2.20;;;28.90;53.50;;;;;;5006148;28;20045;-74
2022/08/23 11:30:31;;;;;;;3.53;2.08;;;29.10;53.10;;;;;;5008490;28;20114;-74
2022/08/23 11:33:09;;;;;;;3.78;2.30;;;29.30;50.90;;;;;;5014328;28;20030;-74
2022/08/23 11:35:47;;;;;;;6.10;2.10;;;29.20;51.20;;;;;;5010194;28;20042;-74
2022/08/23 11:38:14;;;;;;;3.47;2.20;;;29.70;49.30;;;;;;5011704;28;20022;-73
2022/08/23 11:40:49;;;;;;;4.60;2.25;;;30.10;48.00;;;;;;5024524;28;20128;-73
2022/08/23 11:43:24;;;;;;;6.47;2.08;;;30.00;48.00;;;;;;5004614;28;20376;-74
2022/08/23 11:45:50;;;;;;;3.80;2.20;;;29.80;49.20;;;;;;5015112;28;20118;-74
2022/08/23 11:48:21;;;;;;;5.75;2.42;;;29.80;49.60;;;;;;5013756;28;20096;-74
2022/08/23 11:50:50;;;;;;;6.13;2.40;;;29.30;50.70;;;;;;5010691;28;20038;-74
2022/08/23 11:54:01;;;;;;;4.13;2.10;;;28.90;51.90;;;;;;5000922;28;20535;-74
2022/08/23 11:56:53;;;;;;;5.45;2.42;;;29.30;50.30;;;;;;4989719;28;20287;-73
2022/08/23 11:59:30;;;;;;;5.68;2.30;;;29.30;49.80;;;;;;5003744;28;20053;-74
2022/08/23 12:01:58;;;;;;;3.97;2.50;;;29.80;49.30;;;;;;5012793;28;20038;-74
2022/08/23 12:04:41;;;;;;;4.40;2.00;;;29.80;49.40;;;;;;5009276;28;20034;-73
2022/08/23 12:07:11;;;;;;;5.43;2.50;;;29.90;48.10;;;;;;5015576;28;20072;-74
2022/08/23 12:09:40;;;;;;;3.70;2.08;;;29.80;47.90;;;;;;5015885;28;20338;-73
2022/08/23 12:12:33;;;;;;;3.17;1.80;;;29.90;47.20;;;;;;5015835;28;20099;-74
2022/08/23 12:15:05;;;;;;;4.07;1.73;;;30.30;46.60;;;;;;5013634;28;20042;-73
2022/08/23 12:17:34;;;;;;;3.35;1.50;;;30.40;46.80;;;;;;4993782;28;20038;-74
2022/08/23 12:20:04;;;;;;;2.70;1.63;;;30.60;46.40;;;;;;4997753;28;20073;-76
2022/08/23 12:23:15;;;;;;;4.03;1.40;;;30.50;45.20;;;;;;4999757;28;20037;-74
2022/08/23 12:25:41;;;;;;;1.75;1.15;;;29.70;44.80;;;;;;4995372;28;20053;-73
2022/08/23 12:28:26;;;;;;;1.75;1.20;;;29.50;46.10;;;;;;4986182;28;20034;-74
2022/08/23 12:30:55;;;;;;;1.75;1.30;;;30.00;45.20;;;;;;4990806;28;20073;-73
2022/08/23 12:34:05;;;;;;;4.00;1.33;;;30.50;44.20;;;;;;4995783;28;20044;-73
2022/08/23 12:37:06;;;;;;;4.20;1.42;;;30.90;44.90;;;;;;4989703;28;20034;-74
2022/08/23 12:39:55;;;;;;;2.13;1.40;;;31.00;43.50;;;;;;4990369;28;20026;-73
2022/08/23 12:42:33;;;;;;;4.43;1.40;;;31.00;43.30;;;;;;5007499;28;20034;-74
2022/08/23 12:45:12;;;;;;;2.15;1.20;;;31.00;43.90;;;;;;4990398;28;20035;-73
2022/08/23 12:47:42;;;;;;;3.03;1.30;;;30.80;42.80;;;;;;4999424;28;20487;-73
2022/08/23 12:50:24;;;;;;;2.92;1.48;;;30.80;44.00;;;;;;4996225;28;20026;-74
2022/08/23 12:53:24;;;;;;;2.85;1.50;;;30.90;43.40;;;;;;4996778;28;20045;-73
2022/08/23 12:55:57;;;;;;;3.60;1.35;;;31.00;44.40;;;;;;5015823;28;20347;-73
2022/08/23 12:58:28;;;;;;;4.07;2.13;;;31.00;43.40;;;;;;5001096;28;20497;-73
2022/08/23 13:00:58;;;;;;;4.50;1.75;;;30.80;44.60;;;;;;4997959;28;20395;-73
2022/08/23 13:03:35;;;;;;;2.80;1.50;;;31.00;44.10;;;;;;4991446;28;20034;-73
2022/08/23 13:06:05;;;;;;;2.97;1.50;;;30.90;43.80;;;;;;4998243;28;20038;-73
2022/08/23 13:08:39;;;;;;;3.78;1.80;;;31.10;43.80;;;;;;4992642;28;20088;-73
2022/08/23 13:11:07;;;;;;;6.68;1.90;;;31.30;43.40;;;;;;4991289;28;20071;-73
2022/08/23 13:13:35;;;;;;;5.28;1.70;;;31.00;43.80;;;;;;4999616;28;20034;-73